Time;durP1;ratioP1;P1;durP2;ratioP2;P2;SDS_P1;SDS_P2;PMS_P1;PMS_P2;Temp;Humidity;BMP_temperature;BMP_pressure;BME280_temperature;BME280_humidity;BME280_pressure;Samples;Min_cycle;Max_cycle;Signal;HPM_P1;HPM_P2
2023/01/30 00:01:24;;;;;;;1.20;1.20;;;;;;;-3.85;100.00;100626.78;4974299;28;20483;-91
2023/01/30 00:03:50;;;;;;;0.38;0.38;;;;;;;-3.98;100.00;100606.91;5005685;28;20122;-93
2023/01/30 00:06:16;;;;;;;0.32;0.30;;;;;;;-4.03;100.00;100604.38;5008189;28;20125;-91
2023/01/30 00:08:42;;;;;;;0.77;0.77;;;;;;;-4.00;100.00;100614.53;4989150;28;20129;-91
2023/01/30 00:11:10;;;;;;;2.35;1.77;;;;;;;-4.01;100.00;100602.16;4992792;28;20046;-92
2023/01/30 00:13:36;;;;;;;1.60;0.52;;;;;;;-3.99;100.00;100599.09;4990181;28;20435;-92
2023/01/30 00:16:02;;;;;;;2.17;0.85;;;;;;;-3.99;100.00;100599.88;4976788;28;20108;-91
2023/01/30 00:18:28;;;;;;;2.40;1.33;;;;;;;-3.96;100.00;100593.81;4974147;28;20062;-91
2023/01/30 00:21:01;;;;;;;0.10;0.10;;;;;;;-3.94;100.00;100588.88;4991005;28;20123;-90
2023/01/30 00:23:28;;;;;;;12.88;2.30;;;;;;;-3.88;100.00;100589.50;4975624;28;20120;-90
2023/01/30 00:25:54;;;;;;;4.38;3.97;;;;;;;-3.89;100.00;100583.28;5002251;28;20041;-91
2023/01/30 00:28:19;;;;;;;0.20;0.20;;;;;;;-3.85;100.00;100578.00;4978431;28;20030;-91
2023/01/30 00:30:50;;;;;;;3.30;3.08;;;;;;;-3.85;100.00;100573.38;4972517;28;20148;-92
2023/01/30 00:33:16;;;;;;;0.75;0.75;;;;;;;-3.83;100.00;100559.47;4989647;28;20514;-91
2023/01/30 00:35:43;;;;;;;10.85;1.45;;;;;;;-3.80;100.00;100581.28;4975012;28;20035;-91
2023/01/30 00:38:09;;;;;;;0.52;0.52;;;;;;;-3.87;100.00;100559.34;4975172;28;20033;-93
2023/01/30 00:40:34;;;;;;;1.70;1.60;;;;;;;-3.86;100.00;100571.78;4989157;28;20550;-91
2023/01/30 00:48:29;;;;;;;0.95;0.95;;;;;;;-3.85;100.00;100567.16;4994846;28;20462;-90
2023/01/30 00:50:54;;;;;;;0.45;0.45;;;;;;;-3.89;100.00;100561.59;4972961;28;20024;-90
2023/01/30 00:53:20;;;;;;;0.75;0.75;;;;;;;-3.92;100.00;100553.31;4976399;28;20123;-90
2023/01/30 00:55:45;;;;;;;1.98;1.88;;;;;;;-4.03;100.00;100533.91;4990269;28;20029;-92
2023/01/30 00:58:11;;;;;;;0.50;0.50;;;;;;;-4.00;100.00;100568.47;4976186;28;20121;-91
2023/01/30 01:00:37;;;;;;;0.10;0.10;;;;;;;-4.02;100.00;100559.91;4994373;28;20699;-91
2023/01/30 01:03:03;;;;;;;1.08;1.05;;;;;;;-4.08;100.00;100547.66;4988941;28;20742;-91
2023/01/30 01:05:29;;;;;;;1.92;1.83;;;;;;;-4.12;100.00;100548.66;5023359;28;20034;-92
2023/01/30 01:07:55;;;;;;;0.30;0.30;;;;;;;-4.15;100.00;100558.22;4971897;28;20044;-91
2023/01/30 01:10:22;;;;;;;4.63;1.95;;;;;;;-4.27;100.00;100539.94;5004637;28;20096;-92
2023/01/30 01:12:48;;;;;;;0.17;0.17;;;;;;;-4.38;100.00;100527.09;4989265;28;20065;-91
2023/01/30 01:15:14;;;;;;;3.20;2.30;;;;;;;-4.32;100.00;100540.13;4989675;28;20522;-91
2023/01/30 01:17:40;;;;;;;0.50;0.50;;;;;;;-4.31;100.00;100543.63;4990476;28;20121;-91
2023/01/30 01:20:07;;;;;;;1.00;1.00;;;;;;;-4.37;100.00;100520.56;4989188;28;20038;-89
2023/01/30 01:22:32;;;;;;;7.57;2.92;;;;;;;-4.47;100.00;100518.19;5003676;28;20373;-91
2023/01/30 01:24:58;;;;;;;1.55;1.45;;;;;;;-4.51;100.00;100528.09;4991269;28;20044;-91
2023/01/30 01:27:23;;;;;;;0.30;0.30;;;;;;;-4.56;100.00;100517.44;4989244;28;20108;-91
2023/01/30 01:29:49;;;;;;;0.10;0.10;;;;;;;-4.66;100.00;100494.25;4983202;28;20057;-90
2023/01/30 01:32:14;;;;;;;0.60;0.55;;;;;;;-4.51;100.00;100518.06;4974432;28;20460;-91
2023/01/30 01:34:40;;;;;;;1.13;1.10;;;;;;;-4.65;100.00;100495.03;4990175;28;20026;-90
2023/01/30 01:37:05;;;;;;;1.92;1.75;;;;;;;-4.63;100.00;100503.63;4977023;28;20050;-89
2023/01/30 01:42:16;;;;;;;2.42;2.28;;;;;;;-4.61;100.00;100510.31;5001757;28;20038;-91
2023/01/30 01:45:19;;;;;;;2.50;0.77;;;;;;;-4.54;100.00;100515.22;5003635;28;20030;-91
2023/01/30 01:47:49;;;;;;;1.15;1.15;;;;;;;-4.55;100.00;100513.63;4959625;28;20648;-91
2023/01/30 01:50:27;;;;;;;1.58;1.48;;;;;;;-4.62;100.00;100511.41;5008325;28;20035;-91
2023/01/30 01:52:56;;;;;;;0.00;0.00;;;;;;;-4.68;100.00;100501.06;4988937;28;21247;-91
2023/01/30 01:55:23;;;;;;;1.13;1.08;;;;;;;-4.65;100.00;100508.56;4990639;28;20468;-91
2023/01/30 01:58:08;;;;;;;0.63;0.63;;;;;;;-4.74;100.00;100492.34;4999627;28;20103;-91
2023/01/30 02:00:34;;;;;;;0.13;0.13;;;;;;;-4.72;100.00;100504.44;4968072;28;20068;-91
2023/01/30 02:03:04;;;;;;;1.23;1.23;;;;;;;-4.66;100.00;100506.97;4974475;28;20400;-90
2023/01/30 02:05:33;;;;;;;1.25;1.15;;;;;;;-4.69;100.00;100494.09;4971957;28;20038;-91
2023/01/30 02:08:03;;;;;;;0.50;0.50;;;;;;;-4.72;100.00;100498.22;4973313;28;20037;-90
2023/01/30 02:10:36;;;;;;;1.02;1.02;;;;;;;-4.82;100.00;100485.84;4988392;28;20065;-90
2023/01/30 02:13:02;;;;;;;2.90;2.10;;;;;;;-4.82;100.00;100491.28;4990246;28;20452;-92
2023/01/30 02:15:27;;;;;;;4.03;0.80;;;;;;;-4.79;100.00;100493.31;4972393;28;20026;-91
2023/01/30 02:17:53;;;;;;;1.13;1.13;;;;;;;-4.81;100.00;100484.72;4973392;28;20037;-91
2023/01/30 02:20:26;;;;;;;1.92;0.88;;;;;;;-4.80;100.00;100493.63;4973427;28;20045;-90
2023/01/30 02:23:10;;;;;;;1.17;1.10;;;;;;;-4.81;100.00;100492.84;4985213;28;20080;-90
2023/01/30 02:26:00;;;;;;;0.60;0.60;;;;;;;-4.84;100.00;100485.38;4989559;28;20511;-91
2023/01/30 02:28:32;;;;;;;0.03;0.03;;;;;;;-4.87;100.00;100480.63;4985289;28;20038;-90
2023/01/30 02:31:03;;;;;;;0.90;0.90;;;;;;;-4.85;100.00;100474.91;5006099;28;20076;-90
2023/01/30 02:33:38;;;;;;;2.60;2.40;;;;;;;-4.90;100.00;100473.16;5003776;28;20030;-91
2023/01/30 02:36:22;;;;;;;0.38;0.38;;;;;;;-4.96;100.00;100463.59;4987624;28;20042;-91
2023/01/30 02:38:51;;;;;;;7.28;3.15;;;;;;;-4.89;100.00;100468.53;4974120;28;20041;-91
2023/01/30 02:41:23;;;;;;;0.30;0.30;;;;;;;-4.91;100.00;100463.44;4988742;28;20034;-90
2023/01/30 02:44:26;;;;;;;0.68;0.68;;;;;;;-4.94;100.00;100453.28;5005732;28;20042;-91
2023/01/30 02:47:02;;;;;;;7.03;2.55;;;;;;;-5.00;100.00;100451.84;4993569;28;20034;-90
2023/01/30 02:49:31;;;;;;;0.65;0.65;;;;;;;-4.98;100.00;100460.44;4978179;28;20038;-91
2023/01/30 02:51:59;;;;;;;1.58;1.48;;;;;;;-5.05;100.00;100443.91;4994572;28;20500;-90
2023/01/30 02:54:24;;;;;;;1.77;1.00;;;;;;;-5.07;100.00;100448.84;4990027;28;20091;-93
2023/01/30 02:56:53;;;;;;;0.95;0.95;;;;;;;-5.07;100.00;100440.72;4991527;28;20034;-91
2023/01/30 02:59:26;;;;;;;1.65;1.10;;;;;;;-5.13;100.00;100431.19;4974345;28;20164;-93
2023/01/30 03:02:04;;;;;;;0.85;0.85;;;;;;;-5.13;100.00;100439.31;4997490;28;20140;-91
2023/01/30 03:04:54;;;;;;;3.33;1.38;;;;;;;-5.13;100.00;100435.84;5008710;28;20041;-91
2023/01/30 03:07:36;;;;;;;1.35;1.35;;;;;;;-5.21;100.00;100407.66;5009583;28;20507;-91
2023/01/30 03:10:22;;;;;;;6.40;1.55;;;;;;;-5.11;100.00;100420.84;4990052;28;20476;-89
2023/01/30 03:12:58;;;;;;;0.13;0.13;;;;;;;-5.12;100.00;100413.84;5007629;28;20045;-89
2023/01/30 03:15:51;;;;;;;0.63;0.63;;;;;;;-5.14;100.00;100405.28;5009767;28;20403;-91
2023/01/30 03:18:20;;;;;;;0.47;0.47;;;;;;;-5.24;100.00;100386.69;4982013;28;20405;-90
2023/01/30 03:20:46;;;;;;;0.63;0.63;;;;;;;-5.18;100.00;100398.94;4976528;28;20164;-91
2023/01/30 03:23:13;;;;;;;0.70;0.70;;;;;;;-5.32;100.00;100374.78;4973969;28;20112;-90
2023/01/30 03:25:41;;;;;;;0.40;0.40;;;;;;;-5.09;100.00;100394.25;4976352;28;20025;-90
2023/01/30 03:28:08;;;;;;;0.10;0.10;;;;;;;-5.20;100.00;100374.09;4995073;28;20415;-91
2023/01/30 03:30:34;;;;;;;4.00;2.50;;;;;;;-5.15;100.00;100392.88;4990787;28;20117;-91
2023/01/30 03:33:06;;;;;;;2.70;1.83;;;;;;;-5.21;100.00;100375.22;4974656;28;20515;-91
2023/01/30 03:35:34;;;;;;;4.57;1.00;;;;;;;-5.35;100.00;100350.31;4976967;28;20439;-91
2023/01/30 03:38:01;;;;;;;1.33;1.23;;;;;;;-5.37;100.00;100349.81;4992508;28;20034;-91
2023/01/30 03:40:28;;;;;;;1.95;1.80;;;;;;;-5.28;100.00;100364.13;4977769;28;20547;-91
2023/01/30 03:42:53;;;;;;;3.45;1.20;;;;;;;-5.25;100.00;100368.88;4975779;28;20113;-90
2023/01/30 03:45:19;;;;;;;0.00;0.00;;;;;;;-5.25;100.00;100369.66;4990633;28;20058;-91
2023/01/30 03:47:46;;;;;;;1.52;1.42;;;;;;;-5.20;100.00;100366.00;4991634;28;20029;-92
2023/01/30 03:50:12;;;;;;;0.20;0.20;;;;;;;-5.17;100.00;100366.13;4992688;28;20034;-91
2023/01/30 03:52:38;;;;;;;1.35;1.33;;;;;;;-5.22;100.00;100352.03;4991692;28;20458;-91
2023/01/30 03:55:09;;;;;;;0.40;0.40;;;;;;;-5.16;100.00;100369.63;4994248;28;20109;-92
2023/01/30 03:57:35;;;;;;;0.20;0.20;;;;;;;-5.20;100.00;100360.59;4991625;28;20084;-92
2023/01/30 04:00:00;;;;;;;1.02;0.95;;;;;;;-5.23;100.00;100361.25;4975795;28;20022;-90
2023/01/30 04:02:26;;;;;;;0.28;0.28;;;;;;;-5.27;100.00;100354.91;5005411;28;20041;-91
2023/01/30 04:04:52;;;;;;;3.70;2.08;;;;;;;-5.25;100.00;100358.06;4992661;28;20030;-90
2023/01/30 04:07:18;;;;;;;0.20;0.20;;;;;;;-5.24;100.00;100362.34;4990997;28;20061;-91
2023/01/30 04:09:45;;;;;;;0.17;0.17;;;;;;;-5.22;100.00;100368.25;4993379;28;20109;-90
2023/01/30 04:12:12;;;;;;;1.13;1.02;;;;;;;-5.28;100.00;100359.50;4990492;28;20117;-91
2023/01/30 04:14:45;;;;;;;0.45;0.45;;;;;;;-5.31;100.00;100353.94;4992495;28;20112;-90
2023/01/30 04:17:23;;;;;;;0.82;0.63;;;;;;;-5.33;100.00;100362.38;4991886;28;20037;-90
2023/01/30 04:20:08;;;;;;;0.75;0.75;;;;;;;-5.35;100.00;100358.41;4991303;28;20144;-89
2023/01/30 04:22:35;;;;;;;0.30;0.30;;;;;;;-5.38;100.00;100351.75;4976300;28;20034;-90
2023/01/30 04:25:02;;;;;;;0.10;0.10;;;;;;;-5.40;100.00;100345.06;4974512;28;20495;-90
2023/01/30 04:27:29;;;;;;;0.10;0.10;;;;;;;-5.37;100.00;100347.91;4981825;28;20496;-90
2023/01/30 04:30:11;;;;;;;0.88;0.88;;;;;;;-5.41;100.00;100322.66;4993401;28;20470;-90
2023/01/30 04:32:37;;;;;;;1.65;1.55;;;;;;;-5.52;100.00;100299.00;5006433;28;20030;-91
2023/01/30 04:35:03;;;;;;;2.47;2.28;;;;;;;-5.24;100.00;100332.59;4993709;28;20061;-90
2023/01/30 04:37:28;;;;;;;1.92;1.83;;;;;;;-5.21;100.00;100329.25;4989110;28;20426;-90
2023/01/30 04:39:54;;;;;;;0.20;0.20;;;;;;;-5.16;100.00;100323.66;4985539;28;20044;-89
2023/01/30 04:42:20;;;;;;;2.25;2.15;;;;;;;-5.25;100.00;100317.50;4992043;28;20078;-91
2023/01/30 04:45:06;;;;;;;4.95;2.28;;;;;;;-5.22;100.00;100324.97;4994028;28;20407;-89
2023/01/30 04:47:32;;;;;;;2.50;2.35;;;;;;;-5.29;100.00;100311.16;4991890;28;20033;-90
2023/01/30 04:49:58;;;;;;;0.70;0.70;;;;;;;-5.32;100.00;100312.59;4987390;28;20095;-90
2023/01/30 04:52:23;;;;;;;2.05;1.08;;;;;;;-5.35;100.00;100307.06;4989185;28;20121;-90
2023/01/30 04:54:49;;;;;;;2.55;1.73;;;;;;;-5.34;100.00;100311.34;5007097;28;20483;-90
2023/01/30 04:57:16;;;;;;;2.22;2.03;;;;;;;-5.36;100.00;100308.97;4975291;28;20552;-90
2023/01/30 04:59:42;;;;;;;0.75;0.75;;;;;;;-5.36;100.00;100305.47;4991432;28;20117;-89
2023/01/30 05:02:11;;;;;;;1.33;1.08;;;;;;;-5.31;100.00;100308.00;4974494;28;20033;-88
2023/01/30 05:04:37;;;;;;;0.40;0.40;;;;;;;-5.42;100.00;100293.25;5007239;28;20542;-91
2023/01/30 05:07:02;;;;;;;1.65;1.55;;;;;;;-5.40;100.00;100285.59;4992015;28;20112;-90
2023/01/30 05:09:28;;;;;;;3.15;2.25;;;;;;;-5.49;100.00;100287.53;4989034;28;20053;-91
2023/01/30 05:11:53;;;;;;;4.72;3.45;;;;;;;-5.45;100.00;100291.19;4975053;28;20037;-91
2023/01/30 05:14:19;;;;;;;1.00;0.85;;;;;;;-5.51;100.00;100285.16;4988520;28;20034;-92
2023/01/30 05:16:45;;;;;;;0.32;0.32;;;;;;;-5.48;100.00;100308.84;4974380;28;20523;-92
2023/01/30 05:19:12;;;;;;;0.75;0.75;;;;;;;-5.57;100.00;100285.66;4975284;28;20108;-91
2023/01/30 05:21:37;;;;;;;2.30;2.20;;;;;;;-5.55;100.00;100291.53;4990137;28;20047;-91
2023/01/30 05:24:03;;;;;;;0.88;0.88;;;;;;;-5.54;100.00;100295.84;4991064;28;20495;-91
2023/01/30 05:26:29;;;;;;;0.85;0.85;;;;;;;-5.72;100.00;100266.16;5020715;28;20030;-91
2023/01/30 05:28:55;;;;;;;0.38;0.38;;;;;;;-5.42;100.00;100295.97;5005914;28;20029;-92
2023/01/30 05:31:22;;;;;;;0.95;0.95;;;;;;;-5.46;100.00;100286.91;4975205;28;20030;-91
2023/01/30 05:33:49;;;;;;;0.52;0.52;;;;;;;-5.48;100.00;100283.72;5004528;28;20164;-92
2023/01/30 05:36:16;;;;;;;0.00;0.00;;;;;;;-5.34;100.00;100289.72;4992951;28;20045;-90
2023/01/30 05:38:42;;;;;;;1.55;1.45;;;;;;;-5.43;100.00;100275.44;4992809;28;20399;-92
2023/01/30 05:41:09;;;;;;;1.10;0.70;;;;;;;-5.33;100.00;100285.88;5006929;28;20025;-91
2023/01/30 05:43:35;;;;;;;0.55;0.55;;;;;;;-5.42;100.00;100277.03;5003841;28;20432;-90
2023/01/30 05:46:02;;;;;;;3.78;2.80;;;;;;;-5.37;100.00;100295.75;4971316;28;20132;-90
2023/01/30 05:48:28;;;;;;;4.50;3.72;;;;;;;-5.62;100.00;100277.75;5000216;28;20124;-89
2023/01/30 05:50:55;;;;;;;2.00;1.25;;;;;;;-5.46;100.00;100287.69;4989587;28;20077;-89
2023/01/30 05:53:23;;;;;;;1.63;1.52;;;;;;;-5.52;100.00;100282.78;4973735;28;20042;-90
2023/01/30 05:56:00;;;;;;;6.13;1.85;;;;;;;-5.41;100.00;100300.22;4989829;28;20490;-89
2023/01/30 05:58:26;;;;;;;8.82;4.93;;;;;;;-5.40;100.00;100296.41;4985507;28;20040;-89
2023/01/30 06:00:52;;;;;;;1.90;1.20;;;;;;;-5.42;100.00;100287.84;4982893;28;20027;-91
2023/01/30 06:03:17;;;;;;;0.17;0.17;;;;;;;-5.39;100.00;100303.41;4995862;28;20050;-92
2023/01/30 06:05:43;;;;;;;1.75;1.65;;;;;;;-5.31;100.00;100302.59;4988268;28;20426;-92
2023/01/30 06:08:08;;;;;;;0.22;0.22;;;;;;;-5.36;100.00;100275.72;4986404;28;20037;-91
2023/01/30 06:10:35;;;;;;;3.20;1.85;;;;;;;-5.45;100.00;100266.84;4992547;28;20034;-93
2023/01/30 06:13:00;;;;;;;1.70;1.60;;;;;;;-5.37;100.00;100280.31;4996244;28;20069;-91
2023/01/30 06:15:26;;;;;;;1.55;1.45;;;;;;;-5.37;100.00;100279.53;5006534;28;20034;-94
2023/01/30 06:17:51;;;;;;;3.78;1.42;;;;;;;-5.33;100.00;100280.47;4964643;28;20034;-92
2023/01/30 06:20:17;;;;;;;0.98;0.95;;;;;;;-5.38;100.00;100267.94;4988525;28;20057;-89
2023/01/30 06:22:43;;;;;;;1.35;1.35;;;;;;;-5.28;100.00;100277.59;4971477;28;20122;-91
2023/01/30 06:25:09;;;;;;;1.13;1.10;;;;;;;-5.29;100.00;100281.41;4977843;28;20393;-89
2023/01/30 06:27:35;;;;;;;0.30;0.30;;;;;;;-5.30;100.00;100274.44;4980936;28;20034;-91
2023/01/30 06:30:00;;;;;;;1.60;1.50;;;;;;;-5.21;100.00;100277.88;4982442;28;20034;-92
2023/01/30 06:32:26;;;;;;;0.82;0.82;;;;;;;-5.17;100.00;100268.78;4973269;28;20032;-91
2023/01/30 06:34:51;;;;;;;1.05;1.05;;;;;;;-5.31;100.00;100245.81;4983082;28;20569;-90
2023/01/30 06:37:17;;;;;;;2.90;2.72;;;;;;;-5.20;100.00;100247.81;4971270;28;20034;-92
2023/01/30 06:39:42;;;;;;;1.75;1.65;;;;;;;-5.15;100.00;100238.72;4974349;28;20057;-93
2023/01/30 06:42:08;;;;;;;2.60;2.40;;;;;;;-4.94;100.00;100261.19;4988506;28;20088;-94
2023/01/30 06:44:33;;;;;;;1.10;1.10;;;;;;;-4.90;100.00;100256.69;4984833;28;20112;-91
2023/01/30 06:46:59;;;;;;;1.13;1.05;;;;;;;-4.81;100.00;100260.13;4985891;28;20038;-91
2023/01/30 06:49:24;;;;;;;0.10;0.10;;;;;;;-4.73;100.00;100264.69;4989059;28;20034;-91
2023/01/30 06:51:50;;;;;;;1.15;1.15;;;;;;;-4.63;100.00;100268.91;4995309;28;20028;-92
2023/01/30 06:54:15;;;;;;;0.77;0.77;;;;;;;-4.60;100.00;100254.72;4985681;28;20053;-92
2023/01/30 06:56:41;;;;;;;2.22;2.13;;;;;;;-4.48;100.00;100248.56;4991563;28;20034;-93
2023/01/30 06:59:07;;;;;;;1.27;1.17;;;;;;;-4.30;100.00;100252.72;4974261;28;20045;-92
2023/01/30 07:01:32;;;;;;;0.50;0.50;;;;;;;-4.37;100.00;100230.81;4972697;28;20030;-91
2023/01/30 07:03:58;;;;;;;1.77;1.65;;;;;;;-4.12;100.00;100254.13;4973341;28;20061;-92
2023/01/30 07:06:25;;;;;;;0.95;0.95;;;;;;;-3.89;100.00;100246.41;4991567;28;20092;-94
2023/01/30 07:08:51;;;;;;;1.38;1.10;;;;;;;-3.74;100.00;100259.31;4991652;28;20128;-93
2023/01/30 07:11:17;;;;;;;2.08;1.90;;;;;;;-3.51;100.00;100267.81;4976999;28;20153;-93
2023/01/30 07:13:43;;;;;;;0.82;0.82;;;;;;;-3.41;100.00;100254.63;4976389;28;20253;-94
2023/01/30 07:16:09;;;;;;;1.30;1.27;;;;;;;-3.19;100.00;100266.94;4972365;28;20264;-93
2023/01/30 07:18:34;;;;;;;3.70;3.40;;;;;;;-3.26;100.00;100241.50;4973245;28;20058;-92
2023/01/30 07:21:00;;;;;;;2.17;2.00;;;;;;;-2.95;100.00;100258.00;4990656;28;20033;-93
2023/01/30 07:23:25;;;;;;;1.60;1.50;;;;;;;-2.89;100.00;100241.13;4974084;28;20492;-92
2023/01/30 07:25:51;;;;;;;0.40;0.40;;;;;;;-3.02;100.00;100242.28;4985389;28;20032;-92
2023/01/30 07:28:16;;;;;;;0.00;0.00;;;;;;;-2.83;100.00;100258.00;4970716;28;20041;-92
2023/01/30 07:30:42;;;;;;;0.73;0.73;;;;;;;-2.78;100.00;100249.59;4994990;28;20164;-93
2023/01/30 07:33:07;;;;;;;2.15;1.95;;;;;;;-2.66;100.00;100251.47;4979811;28;20488;-92
2023/01/30 07:35:34;;;;;;;1.80;1.67;;;;;;;-2.69;100.00;100246.75;5010583;28;20029;-93
2023/01/30 07:38:00;;;;;;;1.55;1.45;;;;;;;-2.75;100.00;100245.41;4996191;28;20041;-93
2023/01/30 07:40:26;;;;;;;1.17;0.88;;;;;;;-2.69;100.00;100246.75;4979675;28;20447;-92
2023/01/30 07:43:00;;;;;;;1.98;1.88;;;;;;;-2.48;100.00;100250.88;4977945;28;20029;-93
2023/01/30 07:45:33;;;;;;;3.25;2.97;;;;;;;-2.37;100.00;100256.59;4979774;28;20034;-93
2023/01/30 07:47:59;;;;;;;1.60;1.08;;;;;;;-2.38;100.00;100249.59;4975647;28;20547;-92
2023/01/30 07:50:24;;;;;;;1.10;1.10;;;;;;;-2.37;100.00;100229.44;4959887;28;20038;-91
2023/01/30 07:52:50;;;;;;;1.67;1.60;;;;;;;-2.23;100.00;100232.56;4976619;28;20038;-90
2023/01/30 07:55:16;;;;;;;1.50;1.40;;;;;;;-2.03;100.00;100228.84;4960558;28;20141;-93
2023/01/30 07:57:41;;;;;;;1.10;1.05;;;;;;;-1.90;100.00;100226.84;4983169;28;20646;-93
2023/01/30 08:00:09;;;;;;;0.43;0.43;;;;;;;-1.89;100.00;100218.31;4978282;28;20038;-93
2023/01/30 08:02:35;;;;;;;0.70;0.63;;;;;;;-1.89;100.00;100206.66;4995501;28;20487;-92
2023/01/30 08:05:01;;;;;;;2.90;0.45;;;;;;;-1.73;100.00;100198.50;4979386;28;20046;-92
2023/01/30 08:07:27;;;;;;;0.93;0.85;;;;;;;-1.45;100.00;100210.88;5011817;28;20092;-93
2023/01/30 08:09:52;;;;;;;0.50;0.50;;;;;;;-1.34;100.00;100222.03;4995815;28;20427;-93
2023/01/30 08:12:18;;;;;;;3.63;1.45;;;;;;;-1.38;100.00;100193.16;4994556;28;20034;-93
2023/01/30 08:14:44;;;;;;;0.93;0.85;;;;;;;-1.30;100.00;100209.31;5011984;28;20084;-92
2023/01/30 08:17:09;;;;;;;0.43;0.43;;;;;;;-1.16;100.00;100206.88;4977261;28;20037;-92
2023/01/30 08:19:35;;;;;;;1.05;0.95;;;;;;;-1.36;100.00;100180.75;4995107;28;20395;-92
2023/01/30 08:22:00;;;;;;;1.13;1.13;;;;;;;-1.27;100.00;100189.53;4978969;28;20029;-92
2023/01/30 08:24:26;;;;;;;0.68;0.68;;;;;;;-1.27;100.00;100175.94;5010205;28;20044;-92
2023/01/30 08:26:51;;;;;;;0.73;0.73;;;;;;;-1.27;100.00;100162.31;4994659;28;20026;-91
2023/01/30 08:29:17;;;;;;;1.60;1.50;;;;;;;-1.45;100.00;100158.38;4978849;28;20041;-91
2023/01/30 08:31:43;;;;;;;0.68;0.45;;;;;;;-1.61;100.00;100152.19;4994710;28;20022;-91
2023/01/30 08:34:08;;;;;;;1.55;1.50;;;;;;;-1.72;100.00;100162.81;4993488;28;20113;-93
2023/01/30 08:36:34;;;;;;;2.35;2.17;;;;;;;-1.73;100.00;100161.22;5011488;28;20483;-92
2023/01/30 08:38:59;;;;;;;1.40;1.15;;;;;;;-1.68;100.00;100160.97;4978953;28;20069;-93
2023/01/30 08:41:27;;;;;;;2.30;2.20;;;;;;;-1.83;100.00;100117.47;4978751;28;20022;-93
2023/01/30 08:43:53;;;;;;;0.35;0.35;;;;;;;-1.70;100.00;100121.69;4994962;28;20458;-93
2023/01/30 08:46:20;;;;;;;1.08;1.08;;;;;;;-1.56;100.00;100143.75;4995198;28;20480;-93
2023/01/30 08:48:47;;;;;;;0.80;0.80;;;;;;;-1.48;100.00;100140.84;4993983;28;20488;-91
2023/01/30 08:51:13;;;;;;;1.67;1.58;;;;;;;-1.40;100.00;100125.47;5011386;28;20029;-90
2023/01/30 08:53:38;;;;;;;0.47;0.45;;;;;;;-1.49;100.00;100111.28;4994538;28;20128;-93
2023/01/30 08:56:04;;;;;;;0.50;0.50;;;;;;;-1.62;100.00;100101.66;5011426;28;20044;-94
2023/01/30 08:58:30;;;;;;;2.38;1.85;;;;;;;-1.49;100.00;100120.22;4976965;28;20042;-92
2023/01/30 09:00:55;;;;;;;2.33;2.15;;;;;;;-1.49;100.00;100108.56;4975275;28;20110;-93
2023/01/30 09:03:21;;;;;;;0.40;0.40;;;;;;;-1.43;100.00;100097.06;4974806;28;20550;-92
2023/01/30 09:05:46;;;;;;;0.08;0.08;;;;;;;-1.34;100.00;100107.75;4975142;28;20569;-92
2023/01/30 09:08:12;;;;;;;0.57;0.57;;;;;;;-1.27;100.00;100117.97;4975307;28;20081;-92
2023/01/30 09:10:38;;;;;;;0.28;0.28;;;;;;;-1.26;100.00;100108.69;4991190;28;20528;-93
2023/01/30 09:13:04;;;;;;;0.20;0.20;;;;;;;-1.21;100.00;100127.47;4993251;28;20483;-92
2023/01/30 09:15:31;;;;;;;1.00;1.00;;;;;;;-1.10;100.00;100120.31;4977732;28;20495;-91
2023/01/30 09:17:57;;;;;;;0.98;0.82;;;;;;;-1.04;100.00;100114.22;4978117;28;20060;-92
2023/01/30 09:20:24;;;;;;;1.30;1.20;;;;;;;-0.86;100.00;100105.63;4993761;28;20077;-92
2023/01/30 09:22:49;;;;;;;1.02;1.02;;;;;;;-0.80;100.00;100101.44;4993714;28;20026;-92
2023/01/30 09:25:15;;;;;;;0.38;0.38;;;;;;;-0.76;100.00;100096.88;4978050;28;20498;-93
2023/01/30 09:27:43;;;;;;;0.60;0.60;;;;;;;-0.80;100.00;100087.84;4993642;28;20455;-92
2023/01/30 09:30:09;;;;;;;1.50;1.27;;;;;;;-0.62;100.00;100099.88;4978446;28;20105;-92
2023/01/30 09:32:36;;;;;;;3.75;1.88;;;;;;;-0.80;100.00;100094.06;4975923;28;20044;-91
2023/01/30 09:35:03;;;;;;;4.50;2.47;;;;;;;-0.76;100.00;100094.13;4993847;28;20118;-92
2023/01/30 09:37:28;;;;;;;0.15;0.13;;;;;;;-0.81;100.00;100087.06;4977249;28;20034;-93
2023/01/30 09:39:54;;;;;;;0.70;0.70;;;;;;;-0.70;100.00;100103.63;4977701;28;20479;-92
2023/01/30 09:42:29;;;;;;;1.80;1.70;;;;;;;-0.87;100.00;100076.81;4976298;28;20041;-91
2023/01/30 09:45:12;;;;;;;1.23;1.20;;;;;;;-0.74;100.00;100109.00;4992976;28;20483;-92
2023/01/30 09:48:13;;;;;;;0.77;0.77;;;;;;;-0.81;100.00;100083.56;5009954;28;20435;-92
2023/01/30 09:50:56;;;;;;;1.48;0.73;;;;;;;-0.65;100.00;100104.13;4993422;28;20042;-92
2023/01/30 09:54:13;;;;;;;2.22;0.88;;;;;;;-0.58;100.00;100095.28;4977488;28;20133;-92
2023/01/30 09:56:39;;;;;;;2.15;1.58;;;;;;;-0.65;100.00;100081.53;4950033;28;20046;-91
2023/01/30 09:59:05;;;;;;;1.42;1.33;;;;;;;-0.54;100.00;100079.78;4976818;28;20414;-91
2023/01/30 10:01:50;;;;;;;0.82;0.80;;;;;;;-0.52;100.00;100093.81;4989872;28;20110;-92
2023/01/30 10:04:28;;;;;;;0.43;0.43;;;;;;;-0.39;100.00;100073.44;4973888;28;20037;-93
2023/01/30 10:07:09;;;;;;;0.88;0.88;;;;;;;-0.17;100.00;100071.88;4973971;28;20038;-92
2023/01/30 10:09:46;;;;;;;1.55;1.33;;;;;;;-0.08;100.00;100059.56;4990502;28;20046;-92
2023/01/30 10:12:27;;;;;;;0.90;0.85;;;;;;;-0.10;100.00;100050.97;4995917;28;20035;-94
2023/01/30 10:15:21;;;;;;;1.13;0.85;;;;;;;-0.04;100.00;100049.50;4973713;28;20590;-92
2023/01/30 10:17:50;;;;;;;;;;;;;;;0.13;100.00;100041.94;5006747;28;20034;-93
2023/01/30 10:20:35;;;;;;;2.83;1.30;;;;;;;0.20;100.00;100051.06;4990103;28;19981;-92
2023/01/30 10:23:21;;;;;;;0.98;0.98;;;;;;;0.02;100.00;100030.09;4973961;28;20474;-93
2023/01/30 10:25:57;;;;;;;1.15;1.08;;;;;;;0.06;100.00;100028.22;5006790;28;20109;-94
2023/01/30 10:28:32;;;;;;;0.40;0.40;;;;;;;0.14;100.00;100027.97;4978903;28;20040;-92
2023/01/30 10:31:04;;;;;;;0.40;0.40;;;;;;;0.07;100.00;100032.53;4993022;28;20079;-92
2023/01/30 10:33:45;;;;;;;0.53;0.53;;;;;;;0.03;100.00;100007.13;4976624;28;20488;-91
2023/01/30 10:36:22;;;;;;;1.25;1.10;;;;;;;0.12;100.00;100011.19;4992498;28;20163;-91
2023/01/30 10:38:50;;;;;;;1.65;1.55;;;;;;;0.21;100.00;100010.91;4992707;28;20053;-92
2023/01/30 10:41:26;;;;;;;4.32;1.95;;;;;;;0.69;100.00;100026.38;4993069;28;20038;-92
2023/01/30 10:44:01;;;;;;;0.40;0.40;;;;;;;1.09;100.00;100024.91;4992320;28;20451;-92
2023/01/30 10:46:54;;;;;;;2.40;0.47;;;;;;;1.41;100.00;100006.91;4992910;28;20073;-92
2023/01/30 10:49:23;;;;;;;2.60;1.93;;;;;;;1.70;100.00;100008.69;5007473;28;20046;-94
2023/01/30 10:51:48;;;;;;;3.13;2.13;;;;;;;1.75;100.00;99999.38;4988746;28;20043;-93
2023/01/30 10:54:22;;;;;;;1.13;1.05;;;;;;;1.71;100.00;99993.88;4989769;28;20038;-93
2023/01/30 10:56:57;;;;;;;1.30;1.20;;;;;;;1.87;100.00;99974.47;4989483;28;20052;-93
2023/01/30 11:00:04;;;;;;;3.17;1.15;;;;;;;1.94;100.00;99984.69;5008697;28;20440;-94
2023/01/30 11:02:35;;;;;;;2.67;2.45;;;;;;;1.73;100.00;99980.63;4976939;28;20038;-93
2023/01/30 11:05:22;;;;;;;1.33;1.23;;;;;;;1.74;100.00;99971.22;4988947;28;20034;-94
2023/01/30 11:07:48;;;;;;;0.20;0.20;;;;;;;1.76;100.00;99957.19;4980123;28;20153;-91
2023/01/30 11:10:25;;;;;;;1.45;1.33;;;;;;;2.04;100.00;99968.34;4996424;28;20531;-92
2023/01/30 11:13:21;;;;;;;0.77;0.77;;;;;;;2.05;100.00;99923.41;4979911;28;20128;-92
2023/01/30 11:15:49;;;;;;;0.82;0.63;;;;;;;2.26;100.00;99931.72;4981946;28;20411;-93
2023/01/30 11:18:15;;;;;;;1.20;1.10;;;;;;;2.53;100.00;99940.44;4980330;28;20044;-92
2023/01/30 11:20:44;;;;;;;0.73;0.73;;;;;;;2.63;100.00;99942.41;4979629;28;20378;-91
2023/01/30 11:23:33;;;;;;;0.93;0.82;;;;;;;2.65;100.00;99934.63;4980316;28;20025;-92
2023/01/30 11:26:00;;;;;;;0.75;0.75;;;;;;;2.55;100.00;99916.19;4994826;28;20045;-94
2023/01/30 11:28:26;;;;;;;1.50;1.20;;;;;;;2.57;100.00;99924.81;4975854;28;20061;-94
2023/01/30 11:30:59;;;;;;;4.25;1.95;;;;;;;2.63;100.00;99928.72;4961121;28;20058;-94
2023/01/30 11:33:39;;;;;;;1.73;0.80;;;;;;;2.84;100.00;99917.06;4981503;28;20049;-92
2023/01/30 11:36:27;;;;;;;1.08;0.95;;;;;;;2.94;100.00;99915.53;4989688;28;20030;-95
2023/01/30 11:39:05;;;;;;;4.20;3.80;;;;;;;2.90;100.00;99893.59;4993079;28;20085;-93